Triplett, Missouri
Current Conditions -  °F | °C
As of 2:15 PM on Friday 19 Dec 2014 (Local Time) from KVER Reporting Station
Overcast Overcast  
Wind Chill: 37°   Ceiling: 1200
Heat Index: 37°   Visibility: 10mi
Dew Point: 34°   Wind: 0mph
Humidity: 89%   Direction: NA
Pressure: 30.24"   Gusts: NA
Location:  39.5°N, 93.19°W
Report Text: KVER 192015Z AUTO 00000KT 10SM OVC012 03/01 A3024 RMK AO2 T00270010
Loading
Personal Weather Stations






























Interactive Weather Map New forecast layout! Learn more

10-Day Weather Forecast

Advertisements
Track Severe Weather on mobile